Loup City, NE (68853)

13:35 CDT je la 25an de julio 2017 (GMT -0500)
Central | | Change Station

Elev 2087 ft 41.28 °N, 98.97 °W | Updated 16 seconds ago

Parte nuba
Parte nuba
89.2 °F
Sentas kiel 101 °F
N
4.0
Vento Varianta Vento from Okcidento

hodiaŭ
High -- | Low -- °F
--% Ebla precip.
hieraŭ
High -- | Low -- °F
Precip. -- co
Aerpremo 29.89 co
Vidodistanco 10.0 mejloj
Nuboj Sennuba
Varmindico 101 °F
Rosopunkto 76 °F
Humido 65%
Pluvokvanto 0.00 co
Neĝprofundo Not available.
6:24 AM 8:59 PM
Kreskanta Lunarko, 8% visible
METAR KODX 251753Z AUTO 19016G24KT 10SM CLR 33/18 A2994 RMK AO2 SLP122 T03330183 10339 20228 58004
Aerpremo 29.89 co
Vidodistanco 10.0 mejloj
Nuboj Sennuba
Varmindico 101 °F
Rosopunkto 76 °F
Humido 65%
Pluvokvanto 0.00 co
Neĝprofundo Not available.
6:24 AM 8:59 PM
Kreskanta Lunarko, 8% visible
METAR KODX 251753Z AUTO 19016G24KT 10SM CLR 33/18 A2994 RMK AO2 SLP122 T03330183 10339 20228 58004

Get Severe Weather Alerts

Thanks for signing up!

Be on the lookout for a verification email in your inbox.

You'll start receiving the daily forecast at 6 AM.

×

10-Day Weather Forecast

Almanac

Astronomio

Jul. 25, 2017 Leviĝo Subiro
Aktuala tempo
Civila krepusko
Naŭtika krepusko
Astronomia krepusko
Luno
Daŭro de videbla lumo
Daŭro de tago
Tomorrow will be .
, % of the Moon is Illuminated

Hodiaŭaj ekstremaĵoj

State Highs State Lows

Community

WunderPhotos

Category 6

Welcome to Category 6. This is the collective home for Weather Underground's featured writeups by Dr. Jeff Masters (right), Bob Henson (left), Chris Burt, and other regular contributors.

Nearby

Aerkvalito

  Aerkvalito Aerkvalita indico Poluanto
Not available.

Neĝa profundeco

Station Depth Alteco

Earthquake Activity

Urbo Distance Mag. Time & Date
Minimum magnitude displayed is 2.5.

Coastal Water Temperatures

Loko Temperaturo

Stations

Najbaraj veter-stacioj

Loko de stacio Temp Venta
kvazaŭtemperaturo
Rosopunkto Humido Vento Precip. Elev Ĝisdatigita je Tipo
                   

Watches & Warnings

There are currently no watches in effect.